AirNav   Air Wisconsin pilot careers
 
 1060 users online  

D20 Yale Airport
Yale, Michigan, USA

GOING TO YALE?


FAA INFORMATION EFFECTIVE 21 JUNE 2018

Location

FAA Identifier: D20
Lat/Long: 43-06-45.0940N / 082-47-14.7460W
43-06.751567N / 082-47.245767W
43.1125261 / -82.7874294
(estimated)
Elevation: 814 ft. / 248 m (estimated)
Variation: 06W (1985)
From city: 1 mile SE of YALE, MI
Time zone: UTC -4 (UTC -5 during Standard Time)
Zip code: 48097

Airport Operations

Airport use: Open to the public
Activation date: 07/1948
Control tower: no
ARTCC: CLEVELAND CENTER
FSS: LANSING FLIGHT SERVICE STATION
NOTAMs facility: LAN (NOTAM-D service available)
Attendance: IREG
Wind indicator: yes
Segmented circle: yes

Airport Communications

CTAF: 122.9
WX AWOS-3 at PHN (17 nm SE): 118.375 (810-364-7787)

Airport Services

Parking: tiedowns
Airframe service: NONE
Bottled oxygen: NONE
Bulk oxygen: NONE

Runway Information

Runway 9/27

Dimensions: 2300 x 110 ft. / 701 x 34 m
Surface: turf, in good condition
Runway edge markings: 09/27 & DSPLCD THLDS MKD WITH CONES.
RUNWAY 9  RUNWAY 27
Latitude: 43-06.751333N43-06.751333N
Longitude: 082-47.504000W082-46.987167W
Elevation: 814.0 ft.814.0 ft.
Traffic pattern: leftleft
Displaced threshold: 315 ft.300 ft.
Runway end identifier lights: nono
Obstructions: 15 ft. road, 42 ft. from runway, 2:1 slope to clear
APCH RATIO 25:1 AT DSPLCD THLD, +25 FT POWERLINE 633 FT DSTC.
6 ft. brush, 25 ft. from runway, 4:1 slope to clear
APCH RATIO 20:1 AT DSPLCD THLD. +76 FT TREES 1578 FT DSTC.

Airport Ownership and Management from official FAA records

Ownership: Privately-owned
Owner: JERRY L. NORRIS
7387 BROCKWAY RD
YALE, MI 48097
Phone 810-387-2173
Manager: JERRY L. NORRIS
7387 BROCKWAY RD
YALE, MI 48097
Phone 810-387-2173

Airport Operational Statistics

Aircraft based on the field: 1
Single engine airplanes: 1
    
Aircraft operations: 100/year *
100% transient general aviation
* for 12-month period ending 31 December 2014

Additional Remarks

RY 09 HAS +25 FT PLINE 345 FT DIST.
RY 09/27 SOFT IN SPRING.

Instrument Procedures

There are no published instrument procedures at D20.

Some nearby airports with instrument procedures:

KPHN - St Clair County International Airport (17 nm SE)
77G - Marlette Airport (18 nm NW)
D98 - Romeo State Airport (21 nm SW)
D95 - Dupont-Lapeer Airport (21 nm W)
57D - Ray Community Airport (23 nm S)
 
Loc | Ops | Rwys | IFR | FBO | Links
Com | Nav | Svcs | Stats | Notes

AirNav Hotels Sweepstakes
 
Area around D20 (Yale Airport)
 
Road maps at: MapQuest Bing Google
 
Aerial photo
WARNING: Photo may not be current or correct
Aerial photo of D20 (Yale Airport)
Photo by Katie D.
Photo taken 09-Jul-2009
looking East.

Do you have a better or more recent aerial photo of Yale Airport that you would like to share? If so, please send us your photo.

 
Sectional chart

 
Airport distance calculator
Flying to Yale Airport? Find the distance to fly.

From to D20

Sunrise and sunset
Times for 24-Jun-2018
 Local
(UTC-4)
 Zulu
(UTC)
Morning civil twilight05:1809:18
Sunrise05:5309:53
Sunset21:1401:14
Evening civil twilight21:4901:49

Current date and time
Zulu (UTC)  24-Jun-2018 22:36:27
Local (UTC-4)  24-Jun-2018 18:36:27
 
METAR
KPHN 
17nm SE 
242215Z AUTO 04007KT 10SM SCT015 SCT110 20/15 A3002 RMK AO2
KD95 
21nm W 
242215Z AUTO 01006KT 10SM SCT030 SCT034 22/15 A3002 RMK AO2 T02170147
CYZR 
22nm E 
242223Z AUTO 36008G15KT 340V040 9SM SCT021 17/14 A3002 RMK SLP168 DENSITY ALT 800FT
KMTC 
30nm S 
242156Z 01013KT 10SM SCT028 BKN042 BKN100 23/19 A2999 RMK AO2A SLP158 ALSTG/SLP ESTMD T02260185 $
TAF
CYZR 
22nm E 
242208Z 2422/2502 01010G20KT P6SM BKN020 TEMPO 2422/2424 SCT020 FM250000 36012KT P6SM SCT020 RMK FCST BASED ON AUTO OBS. NXT FCST WILL BE ISSUED AT 250745Z
NOTAMs
Click for the latest NOTAMs
NOTAMs are issued by the DoD/FAA and will open in a separate window not controlled by AirNav.

 

 
 

Would you like to see your business listed on this page?

 If your business provides an interesting product or service to pilots, flight crews, aircraft, or users of the Yale Airport, you should consider listing it here.  To start the listing process, click on the button below
 
Add a business
 

Other Pages about Yale Airport

Page from the Michigan Airport Directory (PDF)
 
Update a link
 
Copyright © AirNav, LLC. All rights reserved. Privacy Policy  Contact